sensor_id;sensor_type;location;lat;lon;timestamp;temperature;humidity
55026;DHT22;40925;45.666;18.994;2023-04-28T06:46:19;307.50;2304.00
55026;DHT22;40925;45.666;18.994;2023-04-28T08:36:09;435.40;1459.20
55026;DHT22;40925;45.666;18.994;2023-04-28T08:38:39;435.70;1459.20
55026;DHT22;40925;45.666;18.994;2023-04-28T08:41:06;435.70;1408.00
55026;DHT22;40925;45.666;18.994;2023-04-28T13:29:40;512.70;1203.20
55026;DHT22;40925;45.666;18.994;2023-04-28T13:41:50;512.40;1305.60
55026;DHT22;40925;45.666;18.994;2023-04-28T13:44:15;512.30;1331.20
55026;DHT22;40925;45.666;18.994;2023-04-28T13:54:04;512.60;1331.20
55026;DHT22;40925;45.666;18.994;2023-04-28T14:59:56;487.30;1408.00
55026;DHT22;40925;45.666;18.994;2023-04-28T16:48:05;436.10;1638.40
55026;DHT22;40925;45.666;18.994;2023-04-28T16:57:50;435.70;1715.20
55026;DHT22;40925;45.666;18.994;2023-04-28T17:00:17;435.40;1715.20
55026;DHT22;40925;45.666;18.994;2023-04-28T17:02:43;435.40;1740.80
55026;DHT22;40925;45.666;18.994;2023-04-28T17:05:09;435.20;1740.80
55026;DHT22;40925;45.666;18.994;2023-04-28T17:07:34;435.30;1766.40
55026;DHT22;40925;45.666;18.994;2023-04-28T17:10:01;435.30;1766.40
55026;DHT22;40925;45.666;18.994;2023-04-28T17:12:26;435.20;1792.00
55026;DHT22;40925;45.666;18.994;2023-04-28T17:14:52;435.20;1817.60
55026;DHT22;40925;45.666;18.994;2023-04-28T17:17:18;435.20;1843.20
55026;DHT22;40925;45.666;18.994;2023-04-28T17:19:44;410.50;1868.80
55026;DHT22;40925;45.666;18.994;2023-04-28T17:22:10;410.50;1868.80
55026;DHT22;40925;45.666;18.994;2023-04-28T17:24:36;410.50;1868.80
55026;DHT22;40925;45.666;18.994;2023-04-28T17:27:02;410.50;1843.20
55026;DHT22;40925;45.666;18.994;2023-04-28T17:29:28;410.50;1817.60
55026;DHT22;40925;45.666;18.994;2023-04-28T17:35:15;410.40;1894.40
55026;DHT22;40925;45.666;18.994;2023-04-28T17:37:41;410.10;1894.40
55026;DHT22;40925;45.666;18.994;2023-04-28T17:40:08;410.20;1894.40
55026;DHT22;40925;45.666;18.994;2023-04-28T17:42:34;410.20;1894.40
55026;DHT22;40925;45.666;18.994;2023-04-28T17:44:59;410.10;1894.40
55026;DHT22;40925;45.666;18.994;2023-04-28T17:50:47;410.20;1920.00
55026;DHT22;40925;45.666;18.994;2023-04-28T17:53:13;410.20;1894.40
55026;DHT22;40925;45.666;18.994;2023-04-28T17:55:40;410.20;1868.80
55026;DHT22;40925;45.666;18.994;2023-04-28T17:58:06;410.30;1843.20
55026;DHT22;40925;45.666;18.994;2023-04-28T18:00:32;410.10;1817.60
55026;DHT22;40925;45.666;18.994;2023-04-28T18:06:20;410.10;1817.60
55026;DHT22;40925;45.666;18.994;2023-04-28T18:08:46;410.10;1843.20
55026;DHT22;40925;45.666;18.994;2023-04-28T18:11:12;409.90;1868.80
55026;DHT22;40925;45.666;18.994;2023-04-28T18:13:38;410.00;1868.80
55026;DHT22;40925;45.666;18.994;2023-04-28T18:16:04;409.90;1894.40
55026;DHT22;40925;45.666;18.994;2023-04-28T18:18:30;409.90;1894.40
55026;DHT22;40925;45.666;18.994;2023-04-28T18:20:57;409.90;1920.00
55026;DHT22;40925;45.666;18.994;2023-04-28T18:23:24;410.00;1971.20
55026;DHT22;40925;45.666;18.994;2023-04-28T18:25:50;409.90;1920.00
55026;DHT22;40925;45.666;18.994;2023-04-28T18:28:16;409.90;1945.60
55026;DHT22;40925;45.666;18.994;2023-04-28T18:30:41;409.80;1843.20
55026;DHT22;40925;45.666;18.994;2023-04-28T18:33:08;409.80;1868.80
55026;DHT22;40925;45.666;18.994;2023-04-28T18:35:37;409.90;1843.20
55026;DHT22;40925;45.666;18.994;2023-04-28T18:38:03;409.80;1894.40
55026;DHT22;40925;45.666;18.994;2023-04-28T18:40:33;409.60;1920.00
55026;DHT22;40925;45.666;18.994;2023-04-28T18:43:00;384.90;1920.00
55026;DHT22;40925;45.666;18.994;2023-04-28T18:45:32;409.70;1996.80
55026;DHT22;40925;45.666;18.994;2023-04-28T18:48:02;384.90;1971.20
55026;DHT22;40925;45.666;18.994;2023-04-28T19:02:40;384.50;2329.60
55026;DHT22;40925;45.666;18.994;2023-04-28T19:05:07;384.20;2329.60
55026;DHT22;40925;45.666;18.994;2023-04-28T19:07:33;359.30;2329.60
55026;DHT22;40925;45.666;18.994;2023-04-28T19:09:58;359.00;2329.60
55026;DHT22;40925;45.666;18.994;2023-04-28T22:44:07;333.20;2329.60
55026;DHT22;40925;45.666;18.994;2023-04-28T22:46:33;333.00;2329.60
55026;DHT22;40925;45.666;18.994;2023-04-28T22:48:59;332.80;2329.60
55026;DHT22;40925;45.666;18.994;2023-04-28T22:51:26;332.90;2329.60
55026;DHT22;40925;45.666;18.994;2023-04-28T22:53:51;332.90;2329.60
55026;DHT22;40925;45.666;18.994;2023-04-28T22:56:19;332.80;2329.60
55026;DHT22;40925;45.666;18.994;2023-04-28T22:58:44;332.80;2329.60
55026;DHT22;40925;45.666;18.994;2023-04-28T23:01:10;332.80;2329.60
55026;DHT22;40925;45.666;18.994;2023-04-28T23:03:36;332.90;2329.60
55026;DHT22;40925;45.666;18.994;2023-04-28T23:06:03;332.90;2329.60
55026;DHT22;40925;45.666;18.994;2023-04-28T23:08:29;333.00;2329.60
55026;DHT22;40925;45.666;18.994;2023-04-28T23:10:55;333.10;2329.60
55026;DHT22;40925;45.666;18.994;2023-04-28T23:13:23;333.20;2329.60
55026;DHT22;40925;45.666;18.994;2023-04-28T23:15:49;333.20;2329.60
55026;DHT22;40925;45.666;18.994;2023-04-28T23:18:15;333.30;2329.60
55026;DHT22;40925;45.666;18.994;2023-04-28T23:54:55;333.70;2329.60
55026;DHT22;40925;45.666;18.994;2023-04-28T23:57:22;333.50;2329.60
55026;DHT22;40925;45.666;18.994;2023-04-28T23:59:47;333.50;2329.60
